Time;durP1;ratioP1;P1;durP2;ratioP2;P2;SDS_P1;SDS_P2;PMS_P1;PMS_P2;Temp;Humidity;BMP_temperature;BMP_pressure;BME280_temperature;BME280_humidity;BME280_pressure;Samples;Min_cycle;Max_cycle;Signal;HPM_P1;HPM_P2
2021/11/07 00:01:22;;;;;;;13.15;9.55;;;11.70;99.90;;;;;;5112708;27;20222;-64
2021/11/07 00:03:55;;;;;;;13.77;10.27;;;11.70;99.90;;;;;;5112273;27;20210;-64
2021/11/07 00:06:26;;;;;;;14.52;11.50;;;11.60;99.90;;;;;;5113230;27;20224;-65
2021/11/07 00:08:59;;;;;;;13.10;11.70;;;11.60;99.90;;;;;;5113565;27;20226;-64
2021/11/07 00:11:31;;;;;;;15.20;13.60;;;11.60;99.90;;;;;;5114953;27;20245;-65
2021/11/07 00:13:58;;;;;;;9.30;8.40;;;11.70;99.90;;;;;;5114442;27;21218;-64
2021/11/07 00:16:27;;;;;;;7.85;7.10;;;11.70;99.90;;;;;;5115424;27;20210;-64
2021/11/07 00:21:46;;;;;;;7.30;6.47;;;11.60;99.90;;;;;;5114136;27;20213;-64
2021/11/07 00:24:19;;;;;;;10.95;8.25;;;11.60;99.90;;;;;;5114357;27;20310;-66
2021/11/07 00:26:55;;;;;;;10.07;8.75;;;11.60;99.90;;;;;;5113877;27;20225;-65
2021/11/07 00:29:25;;;;;;;7.40;6.80;;;11.50;99.90;;;;;;5114721;27;20225;-64
2021/11/07 00:31:56;;;;;;;7.78;6.70;;;11.40;99.90;;;;;;5114683;27;20214;-64
2021/11/07 00:35:08;;;;;;;8.30;6.95;;;11.50;99.90;;;;;;5114575;27;20289;-64
2021/11/07 00:37:38;;;;;;;7.70;6.78;;;11.30;99.90;;;;;;5114629;27;20309;-64
2021/11/07 00:40:18;;;;;;;6.78;6.18;;;11.30;99.90;;;;;;5113671;27;20232;-64
2021/11/07 00:42:52;;;;;;;8.27;6.65;;;11.30;99.90;;;;;;5114318;27;20551;-65
2021/11/07 00:45:33;;;;;;;10.93;7.18;;;11.30;99.90;;;;;;5125674;27;20233;-64
2021/11/07 00:48:13;;;;;;;10.32;6.35;;;11.30;99.90;;;;;;5133292;27;20206;-64
2021/11/07 00:50:50;;;;;;;10.40;7.80;;;11.30;99.90;;;;;;5117392;27;20222;-64
2021/11/07 00:53:27;;;;;;;8.20;7.35;;;11.30;99.90;;;;;;5133376;27;20248;-64
2021/11/07 00:56:05;;;;;;;8.80;8.00;;;11.30;99.90;;;;;;5135869;27;20229;-63
2021/11/07 00:58:36;;;;;;;6.40;5.78;;;11.30;99.90;;;;;;5133480;27;20218;-64
2021/11/07 01:01:07;;;;;;;7.68;6.95;;;11.30;99.90;;;;;;5132096;27;20214;-64
2021/11/07 01:03:34;;;;;;;8.32;7.63;;;11.30;99.90;;;;;;5133160;27;20214;-64
2021/11/07 01:06:01;;;;;;;7.47;6.78;;;11.20;99.90;;;;;;5132893;27;20222;-64
2021/11/07 01:08:28;;;;;;;7.40;6.70;;;11.20;99.90;;;;;;5133133;27;20779;-64
2021/11/07 01:10:57;;;;;;;7.18;5.93;;;11.00;99.90;;;;;;5132628;27;20229;-65
2021/11/07 01:13:25;;;;;;;9.15;6.50;;;11.00;99.90;;;;;;5134068;27;20249;-65
2021/11/07 01:15:52;;;;;;;7.97;7.10;;;11.00;99.90;;;;;;5133239;27;20615;-64
2021/11/07 01:18:20;;;;;;;7.85;7.07;;;11.00;99.90;;;;;;5134231;27;20777;-64
2021/11/07 01:20:48;;;;;;;8.60;7.25;;;11.00;99.90;;;;;;5121213;27;20237;-65
2021/11/07 01:23:19;;;;;;;9.25;6.93;;;11.00;99.90;;;;;;5133563;27;20643;-65
2021/11/07 01:25:48;;;;;;;9.38;8.35;;;11.00;99.90;;;;;;5134735;27;20214;-64
2021/11/07 01:28:17;;;;;;;10.07;8.18;;;11.00;99.90;;;;;;5134075;27;20216;-65
2021/11/07 01:30:48;;;;;;;9.30;8.07;;;10.90;99.90;;;;;;5134575;27;20222;-65
2021/11/07 01:33:19;;;;;;;9.38;7.65;;;10.90;99.90;;;;;;5127514;27;20695;-64
2021/11/07 01:35:52;;;;;;;7.95;7.07;;;10.90;99.90;;;;;;5134726;27;20304;-65
2021/11/07 01:38:24;;;;;;;10.80;8.65;;;10.90;99.90;;;;;;5133667;27;20669;-65
2021/11/07 01:41:00;;;;;;;9.82;8.85;;;10.80;99.90;;;;;;5134087;27;20221;-64
2021/11/07 01:43:29;;;;;;;9.85;8.10;;;10.70;99.90;;;;;;5128636;27;20237;-65
2021/11/07 01:46:04;;;;;;;11.63;9.30;;;10.70;99.90;;;;;;5134079;27;20245;-65
2021/11/07 01:48:38;;;;;;;10.88;8.60;;;10.80;99.90;;;;;;5133616;27;20217;-65
2021/11/07 01:51:05;;;;;;;8.40;7.60;;;10.70;99.90;;;;;;5124168;27;20241;-64
2021/11/07 01:53:33;;;;;;;9.52;7.88;;;10.80;99.90;;;;;;5132852;27;21244;-65
2021/11/07 01:56:06;;;;;;;20.83;15.65;;;10.80;99.90;;;;;;5133156;27;20249;-65
2021/11/07 01:58:35;;;;;;;9.82;8.77;;;10.90;99.90;;;;;;5131241;27;20237;-65
2021/11/07 02:01:03;;;;;;;9.13;8.23;;;10.90;99.90;;;;;;5129634;27;20669;-65
2021/11/07 02:03:30;;;;;;;9.73;8.82;;;10.90;99.90;;;;;;5129643;27;20628;-65
2021/11/07 02:05:58;;;;;;;10.93;8.68;;;10.90;99.90;;;;;;5134097;27;20237;-65
2021/11/07 02:08:25;;;;;;;8.48;7.60;;;10.90;99.90;;;;;;5133363;27;20221;-65
2021/11/07 02:10:54;;;;;;;9.15;8.02;;;11.00;99.90;;;;;;5133461;27;20226;-65
2021/11/07 02:13:22;;;;;;;9.13;8.23;;;11.00;99.90;;;;;;5133202;27;20253;-65
2021/11/07 02:15:50;;;;;;;8.68;7.78;;;11.10;99.90;;;;;;5132524;27;20278;-65
2021/11/07 02:18:18;;;;;;;9.45;8.18;;;11.10;99.90;;;;;;5133123;27;20243;-65
2021/11/07 02:20:48;;;;;;;9.80;8.80;;;11.10;99.90;;;;;;5119345;27;20229;-65
2021/11/07 02:23:18;;;;;;;8.57;7.72;;;11.10;99.90;;;;;;5132757;27;20229;-65
2021/11/07 02:25:46;;;;;;;8.68;7.38;;;11.10;99.90;;;;;;5133313;27;20222;-65
2021/11/07 02:28:24;;;;;;;8.10;7.30;;;11.20;99.90;;;;;;5133208;27;20229;-65
2021/11/07 02:30:52;;;;;;;10.57;8.90;;;11.20;99.90;;;;;;5132877;27;20222;-65
2021/11/07 02:33:19;;;;;;;8.50;7.00;;;11.30;99.90;;;;;;5132249;27;20317;-65
2021/11/07 02:35:48;;;;;;;10.02;7.07;;;11.30;99.90;;;;;;5133512;27;20214;-65
2021/11/07 02:38:15;;;;;;;10.10;7.20;;;11.40;99.90;;;;;;5132630;27;20222;-65
2021/11/07 02:40:42;;;;;;;6.30;5.72;;;11.30;99.90;;;;;;5123855;27;20228;-65
2021/11/07 02:43:09;;;;;;;8.15;7.15;;;11.30;99.90;;;;;;5130557;27;20245;-65
2021/11/07 02:45:36;;;;;;;8.13;6.63;;;11.40;99.90;;;;;;5132521;27;20671;-65
2021/11/07 02:48:03;;;;;;;9.40;7.90;;;11.40;99.90;;;;;;5133232;27;20264;-65
2021/11/07 02:50:30;;;;;;;8.35;7.55;;;11.50;99.90;;;;;;5124574;27;20253;-65
2021/11/07 02:52:59;;;;;;;7.15;6.45;;;11.50;99.90;;;;;;5134726;27;20237;-65
2021/11/07 02:55:26;;;;;;;6.43;5.82;;;11.50;99.90;;;;;;5136846;27;20252;-65
2021/11/07 02:57:55;;;;;;;10.10;6.75;;;11.50;99.90;;;;;;5137041;27;20301;-65
2021/11/07 03:00:23;;;;;;;8.27;7.47;;;11.60;99.90;;;;;;5136976;27;20241;-65
2021/11/07 03:02:50;;;;;;;13.73;7.60;;;11.60;99.90;;;;;;5131280;27;20218;-65
2021/11/07 03:05:19;;;;;;;9.38;8.50;;;11.70;99.90;;;;;;5136990;27;20221;-66
2021/11/07 03:07:46;;;;;;;8.27;7.45;;;11.70;99.90;;;;;;5137387;27;20217;-65
2021/11/07 03:10:17;;;;;;;9.52;6.60;;;11.80;99.90;;;;;;5136779;27;20710;-65
2021/11/07 03:12:44;;;;;;;9.05;8.15;;;11.80;99.90;;;;;;5137392;27;20218;-65
2021/11/07 03:15:13;;;;;;;8.13;7.00;;;11.80;99.90;;;;;;5137306;27;20278;-65
2021/11/07 03:17:41;;;;;;;7.30;6.45;;;11.80;99.90;;;;;;5137129;27;20217;-65
2021/11/07 03:20:11;;;;;;;7.22;6.40;;;11.90;99.90;;;;;;5137163;27;20262;-65
2021/11/07 03:22:38;;;;;;;7.80;7.03;;;11.90;99.90;;;;;;5136892;27;20623;-65
2021/11/07 03:25:06;;;;;;;7.45;5.85;;;11.90;99.90;;;;;;5136972;27;20228;-65
2021/11/07 03:27:38;;;;;;;7.07;6.35;;;11.90;99.90;;;;;;5136856;27;20252;-65
2021/11/07 03:30:12;;;;;;;8.38;6.50;;;12.00;99.90;;;;;;5136933;27;20222;-65
2021/11/07 03:32:41;;;;;;;6.90;6.15;;;11.90;99.90;;;;;;5136494;27;20613;-65
2021/11/07 03:35:16;;;;;;;6.15;5.55;;;11.90;99.90;;;;;;5136948;27;20298;-65
2021/11/07 03:37:54;;;;;;;6.68;5.85;;;11.90;99.90;;;;;;5136630;27;20292;-65
2021/11/07 03:40:22;;;;;;;7.20;6.22;;;11.80;99.90;;;;;;5129840;27;20227;-65
2021/11/07 03:42:51;;;;;;;6.78;6.18;;;11.80;99.90;;;;;;5131297;27;20233;-65
2021/11/07 03:45:19;;;;;;;6.00;5.40;;;11.70;99.90;;;;;;5135676;27;20225;-65
2021/11/07 03:47:49;;;;;;;6.40;5.80;;;11.70;99.90;;;;;;5136447;27;20218;-65
2021/11/07 03:50:17;;;;;;;6.65;5.93;;;11.80;99.90;;;;;;5129828;27;20602;-65
2021/11/07 03:52:44;;;;;;;7.70;5.80;;;11.70;99.90;;;;;;5131727;27;20562;-65
2021/11/07 03:55:11;;;;;;;7.13;6.40;;;11.60;99.90;;;;;;5136471;27;20609;-65
2021/11/07 03:57:38;;;;;;;7.00;6.30;;;11.60;99.90;;;;;;5135352;27;20222;-65
2021/11/07 04:00:09;;;;;;;7.20;6.20;;;11.60;99.90;;;;;;5136502;27;20233;-65
2021/11/07 04:02:36;;;;;;;7.65;5.95;;;11.50;99.90;;;;;;5131441;27;20229;-65
2021/11/07 04:05:05;;;;;;;8.98;6.07;;;11.60;99.90;;;;;;5136099;27;20660;-65
2021/11/07 04:07:32;;;;;;;12.07;6.90;;;11.50;99.90;;;;;;5135395;27;20700;-65
2021/11/07 04:09:59;;;;;;;5.93;5.43;;;11.60;99.90;;;;;;5136230;27;20225;-66
2021/11/07 04:12:26;;;;;;;5.65;5.15;;;11.50;99.90;;;;;;5135732;27;20253;-65
2021/11/07 04:14:53;;;;;;;7.65;6.30;;;11.50;99.90;;;;;;5136342;27;20680;-65
2021/11/07 04:17:21;;;;;;;7.43;6.40;;;11.40;99.90;;;;;;5135971;27;20233;-65
2021/11/07 04:19:50;;;;;;;5.35;4.82;;;11.40;99.90;;;;;;5135771;27;20984;-65
2021/11/07 04:22:17;;;;;;;10.50;9.45;;;11.40;99.90;;;;;;5136166;27;20222;-65
2021/11/07 04:24:44;;;;;;;6.13;5.57;;;11.50;99.90;;;;;;5135456;27;20250;-65
2021/11/07 04:27:11;;;;;;;10.20;7.57;;;11.50;99.90;;;;;;5135729;27;20226;-65
2021/11/07 04:29:38;;;;;;;9.95;6.00;;;11.50;99.90;;;;;;5135560;27;20598;-65
2021/11/07 04:32:06;;;;;;;6.35;5.85;;;11.50;99.90;;;;;;5135857;27;20222;-65
2021/11/07 04:34:35;;;;;;;5.40;4.90;;;11.50;99.90;;;;;;5135148;27;20240;-65
2021/11/07 04:37:03;;;;;;;5.82;5.25;;;11.50;99.90;;;;;;5135889;27;20559;-65
2021/11/07 04:39:30;;;;;;;4.80;4.40;;;11.50;99.90;;;;;;5135059;27;20222;-65
2021/11/07 04:41:57;;;;;;;8.75;6.50;;;11.50;99.90;;;;;;5135677;27;20218;-65
2021/11/07 04:44:24;;;;;;;6.35;5.78;;;11.50;99.90;;;;;;5135814;27;20611;-65
2021/11/07 04:46:52;;;;;;;8.98;7.32;;;11.50;99.90;;;;;;5135342;27;20210;-65
2021/11/07 04:49:19;;;;;;;5.90;4.20;;;11.60;99.90;;;;;;5135455;27;20229;-65
2021/11/07 04:51:48;;;;;;;10.27;7.47;;;11.50;99.90;;;;;;5131336;27;20237;-66
2021/11/07 04:54:15;;;;;;;7.57;4.50;;;11.50;99.90;;;;;;5135269;27;20312;-65
2021/11/07 04:56:42;;;;;;;6.38;5.38;;;11.50;99.90;;;;;;5134563;27;20286;-65
2021/11/07 04:59:10;;;;;;;9.40;7.10;;;11.40;99.90;;;;;;5135432;27;20230;-66
2021/11/07 05:01:40;;;;;;;6.65;5.72;;;11.50;99.90;;;;;;5132968;27;20218;-65
2021/11/07 05:04:10;;;;;;;12.02;9.35;;;11.60;99.90;;;;;;5125607;27;20392;-65
2021/11/07 05:06:37;;;;;;;6.40;5.80;;;11.60;99.90;;;;;;5134837;27;20222;-65
2021/11/07 05:09:07;;;;;;;6.93;4.93;;;11.60;99.90;;;;;;5135073;27;20225;-65
2021/11/07 05:11:37;;;;;;;5.95;5.40;;;11.50;99.90;;;;;;5134605;27;20229;-65
2021/11/07 05:14:05;;;;;;;6.30;4.75;;;11.50;99.90;;;;;;5134103;27;20222;-65
2021/11/07 05:16:32;;;;;;;6.45;5.75;;;11.60;99.90;;;;;;5134384;27;20301;-65
2021/11/07 05:18:59;;;;;;;5.90;5.10;;;11.60;99.90;;;;;;5134816;27;20222;-65
2021/11/07 05:21:26;;;;;;;6.15;5.55;;;11.60;99.90;;;;;;5134954;27;20229;-65
2021/11/07 05:23:53;;;;;;;5.63;4.57;;;11.60;99.90;;;;;;5134457;27;20575;-66
2021/11/07 05:26:21;;;;;;;5.10;4.63;;;11.70;99.90;;;;;;5134508;27;20301;-65
2021/11/07 05:28:49;;;;;;;5.47;4.97;;;11.60;99.90;;;;;;5134395;27;20218;-65
2021/11/07 05:31:18;;;;;;;5.72;4.60;;;11.60;99.90;;;;;;5131134;27;20672;-65
2021/11/07 05:33:45;;;;;;;5.88;5.28;;;11.60;99.90;;;;;;5131666;27;20222;-65
2021/11/07 05:36:12;;;;;;;5.90;5.00;;;11.60;99.90;;;;;;5132945;27;20228;-65
2021/11/07 05:38:40;;;;;;;4.35;3.95;;;11.60;99.90;;;;;;5132970;27;20226;-65
2021/11/07 05:41:07;;;;;;;5.13;4.65;;;11.60;99.90;;;;;;5133767;27;20214;-65
2021/11/07 05:43:35;;;;;;;13.70;10.48;;;11.60;99.90;;;;;;5133415;27;20696;-65
2021/11/07 05:46:02;;;;;;;12.18;9.60;;;11.70;99.90;;;;;;5133818;27;20253;-65
2021/11/07 05:48:29;;;;;;;5.25;4.38;;;11.80;99.90;;;;;;5134578;27;20221;-65
2021/11/07 05:50:57;;;;;;;5.20;4.80;;;11.80;99.90;;;;;;5122396;27;20686;-65
2021/11/07 05:53:24;;;;;;;5.15;4.65;;;11.80;99.90;;;;;;5114034;27;20318;-65
2021/11/07 05:55:52;;;;;;;4.32;3.92;;;11.80;99.90;;;;;;5133825;27;20232;-65
2021/11/07 05:58:19;;;;;;;6.13;4.70;;;11.80;99.90;;;;;;5134446;27;20226;-65
2021/11/07 06:00:49;;;;;;;9.80;7.78;;;11.90;99.90;;;;;;5113291;27;20695;-65
2021/11/07 06:03:19;;;;;;;7.30;6.60;;;12.00;99.90;;;;;;5129627;27;20302;-65
2021/11/07 06:05:46;;;;;;;20.05;15.20;;;12.00;99.90;;;;;;5133952;27;20632;-65
2021/11/07 06:08:14;;;;;;;4.05;3.65;;;12.10;99.90;;;;;;5134045;27;20633;-65
2021/11/07 06:10:40;;;;;;;4.88;4.47;;;12.10;99.90;;;;;;5133744;27;20245;-65
2021/11/07 06:13:07;;;;;;;6.65;5.50;;;12.20;99.90;;;;;;5134235;27;20222;-65
2021/11/07 06:15:34;;;;;;;4.28;3.88;;;12.20;99.90;;;;;;5133737;27;20228;-65
2021/11/07 06:18:03;;;;;;;5.18;4.68;;;12.20;99.90;;;;;;5134287;27;20229;-65
2021/11/07 06:20:31;;;;;;;6.15;5.60;;;12.20;99.90;;;;;;5133990;27;20237;-65
2021/11/07 06:23:00;;;;;;;5.20;4.80;;;12.20;99.90;;;;;;5133559;27;20241;-65
2021/11/07 06:25:27;;;;;;;7.63;6.60;;;12.10;99.90;;;;;;5133827;27;20222;-65
2021/11/07 06:27:54;;;;;;;4.85;4.40;;;12.20;99.90;;;;;;5133515;27;20274;-65
2021/11/07 06:30:21;;;;;;;8.43;6.95;;;12.20;99.90;;;;;;5133775;27;20241;-66
2021/11/07 06:32:49;;;;;;;5.10;4.60;;;12.20;99.90;;;;;;5133459;27;20578;-65
2021/11/07 06:35:18;;;;;;;6.32;4.57;;;12.30;99.90;;;;;;5133982;27;20241;-65
2021/11/07 06:37:45;;;;;;;7.30;5.53;;;12.20;99.90;;;;;;5133441;27;20270;-65
2021/11/07 06:40:16;;;;;;;6.97;6.00;;;12.20;99.90;;;;;;5133613;27;20222;-65
2021/11/07 06:42:44;;;;;;;11.75;9.40;;;12.30;99.90;;;;;;5133491;27;20229;-65
2021/11/07 06:45:12;;;;;;;7.80;6.22;;;12.30;99.90;;;;;;5133735;27;20667;-65
2021/11/07 06:47:40;;;;;;;8.63;6.97;;;12.30;99.90;;;;;;5133412;27;20225;-65
2021/11/07 06:50:10;;;;;;;6.47;5.70;;;12.40;99.90;;;;;;5133681;27;20230;-65
2021/11/07 06:52:39;;;;;;;8.93;8.00;;;12.40;99.90;;;;;;5133266;27;20220;-65
2021/11/07 06:55:07;;;;;;;7.18;5.90;;;12.30;99.90;;;;;;5133736;27;20245;-65
2021/11/07 06:57:35;;;;;;;7.20;6.10;;;12.30;99.90;;;;;;5092744;28;20223;-65
2021/11/07 07:00:02;;;;;;;9.45;8.45;;;12.30;99.90;;;;;;5092420;28;21005;-65
2021/11/07 07:02:29;;;;;;;10.50;9.13;;;12.40;99.90;;;;;;5092571;28;20394;-65
2021/11/07 07:04:56;;;;;;;8.02;7.18;;;12.40;99.90;;;;;;5092431;28;20284;-65
2021/11/07 07:07:23;;;;;;;8.15;5.25;;;12.30;99.90;;;;;;5092719;28;20223;-65
2021/11/07 07:09:55;;;;;;;4.45;4.05;;;12.30;99.90;;;;;;5092126;28;20695;-65
2021/11/07 07:12:28;;;;;;;6.30;5.70;;;12.30;99.90;;;;;;5092643;28;20306;-65
2021/11/07 07:15:03;;;;;;;5.55;4.47;;;12.30;99.90;;;;;;5092089;28;20311;-65
2021/11/07 07:17:35;;;;;;;7.05;5.88;;;12.30;99.90;;;;;;5092479;28;20288;-65
2021/11/07 07:20:14;;;;;;;7.25;6.55;;;12.30;99.90;;;;;;5092213;28;20249;-65
2021/11/07 07:25:57;;;;;;;8.60;6.45;;;12.20;99.90;;;;;;5092110;28;20239;-65
2021/11/07 07:28:34;;;;;;;5.47;4.70;;;12.20;99.90;;;;;;5092413;28;20226;-65
2021/11/07 07:33:53;;;;;;;4.50;4.10;;;12.10;99.90;;;;;;5076022;28;20560;-65
2021/11/07 07:36:21;;;;;;;7.53;5.53;;;12.10;99.90;;;;;;5092384;28;20302;-65
2021/11/07 07:38:48;;;;;;;7.30;6.40;;;12.10;99.90;;;;;;5095027;28;20219;-65
2021/11/07 07:41:16;;;;;;;5.95;5.35;;;12.10;99.90;;;;;;5096302;28;20544;-65
2021/11/07 07:43:43;;;;;;;7.28;5.05;;;12.20;99.90;;;;;;5095775;28;20232;-65
2021/11/07 07:46:12;;;;;;;5.72;4.88;;;12.10;99.90;;;;;;5096061;28;20234;-65
2021/11/07 07:48:42;;;;;;;5.70;5.20;;;12.10;99.90;;;;;;5096118;28;20223;-65
2021/11/07 07:51:10;;;;;;;4.80;4.30;;;12.20;99.90;;;;;;5088647;28;20646;-65
2021/11/07 07:53:38;;;;;;;6.93;4.78;;;12.10;99.90;;;;;;5075567;28;20587;-65
2021/11/07 07:56:06;;;;;;;9.13;7.25;;;12.20;99.90;;;;;;5091682;27;20539;-65
2021/11/07 07:58:35;;;;;;;11.70;9.20;;;12.30;99.90;;;;;;5133899;27;20271;-65
2021/11/07 08:01:03;;;;;;;9.32;7.45;;;12.30;99.90;;;;;;5136212;27;20236;-65
2021/11/07 08:03:30;;;;;;;5.63;5.13;;;12.30;99.90;;;;;;5136820;27;20222;-66
2021/11/07 08:05:58;;;;;;;10.70;7.70;;;12.40;99.90;;;;;;5136105;27;20218;-65
2021/11/07 08:08:25;;;;;;;6.28;5.07;;;12.40;99.90;;;;;;5136427;27;20237;-65
2021/11/07 08:10:52;;;;;;;11.63;9.50;;;12.50;99.90;;;;;;5136222;27;20237;-65
2021/11/07 08:13:19;;;;;;;8.60;7.75;;;12.60;99.90;;;;;;5136341;27;20226;-65
2021/11/07 08:15:47;;;;;;;5.78;5.28;;;12.50;99.90;;;;;;5136501;27;20602;-65
2021/11/07 08:18:14;;;;;;;6.03;5.43;;;12.50;99.90;;;;;;5136126;27;20941;-65
2021/11/07 08:20:44;;;;;;;5.40;4.60;;;12.50;99.90;;;;;;5136110;27;20226;-65
2021/11/07 08:23:11;;;;;;;8.57;5.07;;;12.40;99.90;;;;;;5135731;27;20252;-65
2021/11/07 08:25:38;;;;;;;6.13;5.53;;;12.40;99.90;;;;;;5136212;27;20222;-65
2021/11/07 08:28:06;;;;;;;4.50;4.10;;;12.50;99.90;;;;;;5135834;27;20575;-65
2021/11/07 08:30:35;;;;;;;5.20;4.80;;;12.50;99.90;;;;;;5135916;27;20279;-65
2021/11/07 08:33:03;;;;;;;4.35;3.95;;;12.60;99.90;;;;;;5135714;27;20218;-65
2021/11/07 08:35:30;;;;;;;6.32;4.25;;;12.60;99.90;;;;;;5136004;27;20226;-65
2021/11/07 08:38:01;;;;;;;4.95;4.40;;;12.60;99.90;;;;;;5135465;27;20241;-65
2021/11/07 08:40:31;;;;;;;4.00;3.65;;;12.60;99.90;;;;;;5136045;27;20282;-65
2021/11/07 08:43:04;;;;;;;4.72;4.28;;;12.60;99.90;;;;;;5135305;27;20218;-65
2021/11/07 09:05:02;;;;;;;5.28;3.78;;;12.80;99.90;;;;;;5133374;27;20210;-65
2021/11/07 09:07:41;;;;;;;3.92;3.50;;;12.80;99.90;;;;;;5135105;27;20226;-65
2021/11/07 09:10:16;;;;;;;3.08;2.88;;;12.80;99.90;;;;;;5135265;27;20367;-65
2021/11/07 09:12:43;;;;;;;6.95;4.53;;;12.80;99.90;;;;;;5135277;27;20676;-65
2021/11/07 09:15:11;;;;;;;11.00;8.40;;;12.80;99.90;;;;;;5135123;27;20230;-65
2021/11/07 09:17:38;;;;;;;14.40;11.38;;;12.70;99.90;;;;;;5134701;27;20221;-65
2021/11/07 09:20:08;;;;;;;10.00;7.55;;;12.70;99.90;;;;;;5135140;27;20251;-65
2021/11/07 09:22:40;;;;;;;6.68;5.93;;;12.80;99.90;;;;;;5134827;27;20560;-65
2021/11/07 09:25:09;;;;;;;4.68;4.20;;;12.90;99.90;;;;;;5134829;27;20229;-65
2021/11/07 09:27:40;;;;;;;4.95;3.65;;;13.00;99.90;;;;;;5134730;27;20612;-65
2021/11/07 09:30:11;;;;;;;5.75;4.40;;;13.10;99.90;;;;;;5134822;27;20257;-65
2021/11/07 09:32:45;;;;;;;5.07;3.75;;;13.20;99.90;;;;;;5134484;27;20222;-65
2021/11/07 09:38:07;;;;;;;7.00;6.13;;;13.30;99.90;;;;;;5123428;27;20306;-65
2021/11/07 09:40:37;;;;;;;6.95;6.20;;;13.40;99.90;;;;;;5134583;27;20228;-65
2021/11/07 09:45:53;;;;;;;6.88;6.20;;;13.50;99.90;;;;;;5132495;27;20537;-64
2021/11/07 09:48:24;;;;;;;4.32;3.90;;;13.60;99.90;;;;;;5134199;27;20709;-65
2021/11/07 09:50:53;;;;;;;2.90;2.70;;;13.60;99.90;;;;;;5134272;27;20217;-65
2021/11/07 09:53:21;;;;;;;7.13;3.77;;;13.70;99.90;;;;;;5133871;27;20225;-65
2021/11/07 09:55:48;;;;;;;7.05;5.93;;;13.70;99.90;;;;;;5134096;27;20823;-65
2021/11/07 09:58:15;;;;;;;6.75;5.65;;;13.80;99.90;;;;;;5133997;27;20229;-65
2021/11/07 10:00:45;;;;;;;6.53;5.30;;;13.80;99.90;;;;;;5133770;27;20679;-65
2021/11/07 10:03:15;;;;;;;7.78;3.85;;;13.80;99.90;;;;;;5133831;27;20723;-64
2021/11/07 10:05:45;;;;;;;9.70;4.40;;;13.70;99.90;;;;;;5134418;27;20218;-65
2021/11/07 10:08:13;;;;;;;7.03;4.35;;;13.70;99.90;;;;;;5133630;27;20217;-64
2021/11/07 10:10:46;;;;;;;4.00;3.10;;;13.80;99.90;;;;;;5134115;27;20305;-64
2021/11/07 10:13:20;;;;;;;7.95;4.75;;;13.90;99.90;;;;;;5133693;27;20222;-64
2021/11/07 10:15:49;;;;;;;7.03;3.40;;;13.90;99.90;;;;;;5134228;27;20236;-64
2021/11/07 10:18:25;;;;;;;5.50;4.38;;;13.90;99.90;;;;;;5133677;27;20752;-63
2021/11/07 10:20:56;;;;;;;4.93;3.57;;;13.90;99.90;;;;;;5133867;27;20221;-64
2021/11/07 10:23:28;;;;;;;4.33;3.57;;;14.00;99.90;;;;;;5133640;27;20495;-64
2021/11/07 10:26:03;;;;;;;4.17;3.23;;;14.00;99.90;;;;;;5133963;27;20546;-64
2021/11/07 10:28:36;;;;;;;10.67;4.43;;;14.10;99.90;;;;;;5133715;27;20454;-64
2021/11/07 10:31:17;;;;;;;8.80;5.07;;;14.10;99.90;;;;;;5133821;27;20838;-64
2021/11/07 10:36:52;;;;;;;9.27;5.30;;;14.20;99.90;;;;;;5133946;27;20991;-65
2021/11/07 10:42:26;;;;;;;5.37;3.77;;;14.20;99.90;;;;;;5112456;27;20478;-64
2021/11/07 10:45:08;;;;;;;4.93;2.60;;;14.30;99.90;;;;;;5133712;27;20458;-64
2021/11/07 10:53:12;;;;;;;3.87;3.10;;;14.20;99.90;;;;;;5113176;27;21000;-64
2021/11/07 10:55:44;;;;;;;7.73;4.73;;;14.20;99.90;;;;;;5119147;27;20862;-65
2021/11/07 10:58:12;;;;;;;4.33;2.83;;;14.20;99.90;;;;;;5133546;27;20463;-64
2021/11/07 11:00:40;;;;;;;6.03;2.90;;;14.20;99.90;;;;;;5133166;27;20945;-65
2021/11/07 11:03:08;;;;;;;4.20;2.80;;;14.20;99.90;;;;;;5133369;27;20487;-65
2021/11/07 11:05:40;;;;;;;5.43;3.00;;;14.10;99.90;;;;;;5132937;27;20475;-65
2021/11/07 11:08:12;;;;;;;6.80;4.40;;;14.10;99.90;;;;;;5133383;27;20230;-65
2021/11/07 11:10:51;;;;;;;5.07;3.00;;;14.10;99.90;;;;;;5132970;27;20963;-65
2021/11/07 11:13:26;;;;;;;7.07;3.30;;;14.10;99.90;;;;;;5135837;27;20477;-65
2021/11/07 11:19:07;;;;;;;5.83;2.50;;;14.00;99.90;;;;;;5128233;27;21274;-65
2021/11/07 11:21:53;;;;;;;5.07;2.33;;;13.90;99.90;;;;;;5137085;27;20478;-64
2021/11/07 11:24:32;;;;;;;3.97;2.90;;;13.80;99.90;;;;;;5136724;27;20483;-65
2021/11/07 11:27:08;;;;;;;4.00;2.00;;;13.70;99.90;;;;;;5137426;27;20455;-65
2021/11/07 11:29:47;;;;;;;5.77;2.37;;;13.60;99.90;;;;;;5136711;27;20240;-65
2021/11/07 11:32:20;;;;;;;6.15;2.70;;;13.40;99.90;;;;;;5137011;27;20470;-65
2021/11/07 11:34:54;;;;;;;5.45;2.30;;;13.30;99.90;;;;;;5136901;27;20613;-65
2021/11/07 11:37:24;;;;;;;3.70;2.40;;;13.30;99.90;;;;;;5137273;27;20236;-65
2021/11/07 11:39:58;;;;;;;3.15;2.58;;;13.20;99.90;;;;;;5136502;27;20957;-65
2021/11/07 11:42:31;;;;;;;6.57;3.22;;;13.20;99.90;;;;;;5137127;27;20605;-65
2021/11/07 11:44:58;;;;;;;5.95;3.47;;;13.20;99.90;;;;;;5136690;27;20248;-65
2021/11/07 11:47:44;;;;;;;4.88;3.35;;;13.20;99.90;;;;;;5136937;27;20752;-65
2021/11/07 11:53:02;;;;;;;6.10;2.90;;;13.20;99.90;;;;;;5113547;27;20211;-65
2021/11/07 11:55:37;;;;;;;5.40;2.25;;;13.30;99.90;;;;;;5115748;27;20230;-65
2021/11/07 11:58:19;;;;;;;3.03;2.15;;;13.20;99.90;;;;;;5129867;27;20296;-65
2021/11/07 12:00:55;;;;;;;4.07;2.15;;;13.20;99.90;;;;;;5136600;27;20656;-65
2021/11/07 12:03:41;;;;;;;7.13;2.70;;;13.20;99.90;;;;;;5136605;27;20221;-65
2021/11/07 12:06:26;;;;;;;3.45;2.35;;;13.20;99.90;;;;;;5136245;27;20232;-65
2021/11/07 12:09:33;;;;;;;6.25;3.17;;;13.20;99.90;;;;;;5136230;27;20221;-65
2021/11/07 12:12:06;;;;;;;6.57;3.55;;;13.10;99.90;;;;;;5073035;28;20295;-65
2021/11/07 12:14:55;;;;;;;6.90;3.90;;;13.10;99.90;;;;;;5128659;27;20216;-65
2021/11/07 12:17:28;;;;;;;5.43;3.92;;;13.00;99.90;;;;;;5136758;27;20230;-65
2021/11/07 12:19:55;;;;;;;4.93;3.53;;;13.00;99.90;;;;;;5136238;27;20245;-64
2021/11/07 12:22:25;;;;;;;4.72;3.30;;;13.00;99.90;;;;;;5136249;27;20218;-65
2021/11/07 12:25:05;;;;;;;4.30;3.70;;;13.00;99.90;;;;;;5135426;27;20253;-64
2021/11/07 12:27:37;;;;;;;5.20;2.63;;;13.00;99.90;;;;;;5135848;27;20233;-64
2021/11/07 12:30:24;;;;;;;6.68;3.75;;;13.00;99.90;;;;;;5136104;27;20226;-64
2021/11/07 12:33:01;;;;;;;4.00;3.25;;;13.00;99.90;;;;;;5135822;27;20253;-64
2021/11/07 12:35:34;;;;;;;3.97;2.75;;;13.00;99.90;;;;;;5135886;27;20256;-65
2021/11/07 12:40:51;;;;;;;5.18;4.68;;;13.10;99.90;;;;;;5135468;27;20621;-65
2021/11/07 12:43:22;;;;;;;6.80;4.32;;;13.10;99.90;;;;;;5135899;27;20226;-65
2021/11/07 12:45:53;;;;;;;5.50;4.13;;;13.20;99.90;;;;;;5135486;27;20252;-65
2021/11/07 12:48:39;;;;;;;7.70;3.60;;;13.20;99.90;;;;;;5135769;27;20464;-65
2021/11/07 12:51:09;;;;;;;5.85;2.90;;;13.20;99.90;;;;;;5135352;27;20689;-65
2021/11/07 12:54:01;;;;;;;6.30;3.53;;;13.20;99.90;;;;;;5135314;27;20291;-65
2021/11/07 12:56:30;;;;;;;7.25;3.38;;;13.30;99.90;;;;;;5135284;27;20230;-65
2021/11/07 12:58:58;;;;;;;5.22;3.55;;;13.30;99.90;;;;;;5135508;27;20556;-65
2021/11/07 13:01:27;;;;;;;5.35;3.28;;;13.30;99.90;;;;;;5134940;27;20225;-65
2021/11/07 13:04:01;;;;;;;5.00;3.53;;;13.30;99.90;;;;;;5135395;27;20317;-65
2021/11/07 13:06:35;;;;;;;6.68;3.78;;;13.40;99.90;;;;;;5134836;27;20463;-66
2021/11/07 13:09:04;;;;;;;3.97;2.05;;;13.50;99.90;;;;;;5135288;27;20229;-65
2021/11/07 13:11:40;;;;;;;5.15;2.33;;;13.40;99.90;;;;;;5134577;27;20221;-65
2021/11/07 13:14:14;;;;;;;4.45;2.47;;;13.30;99.90;;;;;;5135256;27;20563;-66
2021/11/07 13:16:55;;;;;;;3.50;2.72;;;13.30;99.90;;;;;;5134860;27;20239;-66
2021/11/07 13:19:41;;;;;;;4.40;2.42;;;13.40;99.90;;;;;;5135068;27;20242;-65
2021/11/07 13:22:39;;;;;;;13.20;3.27;;;13.40;99.90;;;;;;5134986;27;20724;-65
2021/11/07 13:25:16;;;;;;;7.93;2.75;;;13.40;99.90;;;;;;5134503;27;20524;-65
2021/11/07 13:27:47;;;;;;;5.82;2.50;;;13.40;99.90;;;;;;5134955;27;20221;-65
2021/11/07 13:30:17;;;;;;;4.45;2.20;;;13.40;99.90;;;;;;5134414;27;20234;-65
2021/11/07 13:32:46;;;;;;;6.53;2.90;;;13.40;99.90;;;;;;5134882;27;20243;-65
2021/11/07 13:35:17;;;;;;;4.47;2.42;;;13.30;99.90;;;;;;5133443;27;20275;-65
2021/11/07 13:37:51;;;;;;;10.07;3.17;;;13.30;99.90;;;;;;5135016;27;20229;-65
2021/11/07 13:40:25;;;;;;;5.15;2.90;;;13.30;99.90;;;;;;5134410;27;20230;-65
2021/11/07 13:42:52;;;;;;;12.75;6.13;;;13.40;99.90;;;;;;5134761;27;20225;-65
2021/11/07 13:45:23;;;;;;;9.30;6.32;;;13.40;99.90;;;;;;5134171;27;20240;-65
2021/11/07 13:47:52;;;;;;;10.90;5.95;;;13.30;99.90;;;;;;5134593;27;20210;-65
2021/11/07 13:50:21;;;;;;;9.50;3.42;;;13.40;99.90;;;;;;5133984;27;20313;-66
2021/11/07 13:52:52;;;;;;;8.82;3.95;;;13.40;99.90;;;;;;5113950;27;20222;-65
2021/11/07 13:55:21;;;;;;;7.20;3.40;;;13.30;99.90;;;;;;5113211;27;20222;-65
2021/11/07 13:57:48;;;;;;;7.28;3.92;;;13.30;99.90;;;;;;5125307;27;20221;-65